Pagrindinis puslapis
METAR-TAF:

METAR-TAF

Oro uostai :

Yanbu, Saudo Arabija

platuma: 24-09N, ilguma: 038-04E, Aukštis: 8 m

Dabartinis oras

Ataskaita buvo paskelbta 1 valandą ir 12 minutes, ne 10:00 UTC
Vėjas 10 kt iš Pietvakarių
Temperatūra 36°C
Drėgmė 50%
Slėgis 1009 hPa
Matomumas: 7000 m

METAR: OEYN 141000Z 22010KT 7000 NSC 36/24 Q1009 NOSIG

Laikas: 14:12 (11:12 UTC)

Prognozė

Ataskaita buvo paskelbta 6 valandos ir 12 minutes, ne 05:00 UTC
Prognozė galioja nuo 14 metu 06 UTC su 14 metu 15 UTC
Vėjas 15 kt iš Pietvakarių
Matomumas 10 km arba daugiau
Mažai debesys ne aukštis 4000 ft
Tikimybė 30% :
Laikinai
nuo 14 metu 10 UTC su 14 metu 15 UTC
Matomumas: 4000 m
Mažai debesys ne aukštis 3500 ft, Liūtiniai kamuoliniai debesys.
Išsisklaidę debesys ne aukštis 4000 ft
Dulkes pustymas, perkūnija

TAF: OEYN 140500Z 1406/1415 22015KT 9999 FEW040 PROB30 TEMPO 1410/1415 4000 BLDU TS FEW035CB SCT040

Orai ataskaitas ir orų prognozės (METAR, TAF).

turimą stotys yra geltonos ir raudonos taškus žemėlapyje.

Perkelti pele per norėdami pamatyti stoties vardą.

Tada spustelėkite, norėdami matyti oro stebėjimo ir prognozės.

Norėdami pakeisti žemėlapį: spustelėkite ant žalios mygtukų su juodo kryžiaus žemyn,; žalią mygtuką su brūkšneliu, jei norite nutolinti; arba žalių rodyklių gretimoms žemėlapius.


METAR-TAF: